ExpreSS Skopelitis — SW3130 — position and weather

sailwx.info

Track history (hours):
 
Tides and Currents Weather Stations Pressure Air Temp Water Temp Dewpoint Dewpoint Depression Visibility Wind Speed Wind Dir Waves Ship Positions

ExpreSS Skopelitis

Last reported at 2015-Jan-30 11:34 UTC. Time now 2015-Jan-30 12:28 UTC.
Position N 37°06' E 025°22'.

Length 45 m; draft 2.4 m.

Type: Passenger vessel. MMSI: 237029400.

Date/timePositionNaut miles runAvg speedWind from/ knotsBaromVisibWave heightAir tempDewpointWater temp
2015-Jan-30 11:34N 37°06' E 025°22'0 0.0
2015-Jan-30 10:33N 37°06' E 025°22'0 0.0
2015-Jan-30 09:33N 37°06' E 025°22'2 2.1
2015-Jan-30 08:33N 37°05' E 025°20'15 7.4
2015-Jan-30 06:32N 36°55' E 025°34'1210.5
2015-Jan-30 05:23N 36°51' E 025°48'0 0.0
2015-Jan-29 15:31N 36°51' E 025°48'1110.8
2015-Jan-29 14:30N 36°56' E 025°36'14 7.2
2015-Jan-29 12:34N 37°02' E 025°21'4 4.2
2015-Jan-29 11:33N 37°06' E 025°22'0 0.0
2015-Jan-29 10:34N 37°06' E 025°22'0 0.0
2015-Jan-29 09:33N 37°06' E 025°22'2 2.4
2015-Jan-29 08:33N 37°05' E 025°20'15 7.3
2015-Jan-29 06:29N 36°55' E 025°35'9 9.8
2015-Jan-29 05:32N 36°52' E 025°46'6 0.5
2015-Jan-28 17:33N 36°52' E 025°54'7 6.8
2015-Jan-28 16:30N 36°59' E 025°53'7 7.7
2015-Jan-28 15:33N 37°04' E 025°46'1210.8
2015-Jan-28 14:26N 36°56' E 025°35'13 7.0
2015-Jan-28 12:33N 37°02' E 025°21'5 4.7
2015-Jan-28 11:33N 37°06' E 025°22'0 0.0
2015-Jan-28 10:33N 37°06' E 025°22'4 4.4
2015-Jan-28 09:33N 37°02' E 025°21'14 6.8
2015-Jan-28 07:32N 36°56' E 025°36'1111.5
2015-Jan-28 06:33N 37°04' E 025°46'8 7.9
2015-Jan-28 05:32N 36°59' E 025°54'7 7.0
2015-Jan-28 04:33N 36°52' E 025°54'4 0.3
2015-Jan-27 15:30N 36°50' E 025°50'1212.5
2015-Jan-27 14:33N 36°56' E 025°37'14 6.9
2015-Jan-27 12:34N 37°01' E 025°21'5 5.1
2015-Jan-27 11:34N 37°06' E 025°22'0 0.0
2015-Jan-27 10:34N 37°06' E 025°22'0 0.0
2015-Jan-27 09:33N 37°06' E 025°22'2 1.6
2015-Jan-27 08:33N 37°06' E 025°21'15 7.5
2015-Jan-27 06:33N 36°55' E 025°33'1210.3
2015-Jan-27 05:26N 36°52' E 025°47'8 0.6
2015-Jan-26 17:29N 36°53' E 025°56'7 7.8
2015-Jan-26 16:33N 36°60' E 025°53'7 7.0
2015-Jan-26 15:33N 37°04' E 025°46'1110.8
2015-Jan-26 14:31N 36°56' E 025°36'14 6.9
2015-Jan-26 12:34N 37°02' E 025°21'4 4.5
2015-Jan-26 11:34N 37°06' E 025°22'0 0.0
2015-Jan-26 10:33N 37°06' E 025°22'4 3.7
2015-Jan-26 09:34N 37°03' E 025°21'14 7.0
2015-Jan-26 07:29N 36°56' E 025°36'1111.7
2015-Jan-26 06:32N 37°04' E 025°46'8 7.8
2015-Jan-26 05:33N 36°59' E 025°53'7 7.0
2015-Jan-26 04:32N 36°52' E 025°54'3 0.1
2015-Jan-24 18:13N 36°50' E 025°51'13 7.3
2015-Jan-24 16:28N 37°03' E 025°50'6 6.0
2015-Jan-24 15:32N 37°01' E 025°43'1110.7
2015-Jan-24 14:30N 36°54' E 025°32'14 7.1
2015-Jan-24 12:33N 37°04' E 025°20'3 3.0
2015-Jan-24 11:33N 37°06' E 025°22'0 0.0
2015-Jan-24 10:33N 37°06' E 025°22'5 5.1
2015-Jan-24 09:34N 37°01' E 025°21'11 8.1
2015-Jan-24 08:11N 36°53' E 025°30'6 9.2
2015-Jan-24 07:32N 36°56' E 025°36'1211.9
2015-Jan-24 06:33N 37°04' E 025°46'8 8.1
2015-Jan-24 05:33N 36°59' E 025°54'7 7.1
2015-Jan-24 04:32N 36°52' E 025°53'4 0.1
2015-Jan-22 15:31N 36°51' E 025°49'1111.0
2015-Jan-22 14:30N 36°56' E 025°36'13 6.9
2015-Jan-22 12:33N 37°02' E 025°21'5 4.9
2015-Jan-22 11:33N 37°06' E 025°22'0 0.0
2015-Jan-22 10:33N 37°06' E 025°22'0 0.0
2015-Jan-22 09:33N 37°06' E 025°22'2 1.7
2015-Jan-22 08:33N 37°06' E 025°20'1610.6
2015-Jan-22 07:05N 36°52' E 025°30'4 7.6
2015-Jan-22 06:33N 36°55' E 025°34'1010.2
2015-Jan-22 05:31N 36°52' E 025°46'8 0.7
2015-Jan-21 17:23N 36°53' E 025°57'7 8.0
2015-Jan-21 16:33N 36°59' E 025°53'7 7.6
2015-Jan-21 15:33N 37°04' E 025°46'1210.5
2015-Jan-21 14:27N 36°56' E 025°35'13 7.0
2015-Jan-21 12:33N 37°02' E 025°21'4 4.5
2015-Jan-21 11:34N 37°06' E 025°22'0 0.0
2015-Jan-21 10:33N 37°06' E 025°22'5 4.8
2015-Jan-21 09:33N 37°02' E 025°21'1210.2
2015-Jan-21 08:22N 36°52' E 025°31'6 7.2
2015-Jan-21 07:33N 36°56' E 025°36'1211.9
2015-Jan-21 06:32N 37°05' E 025°46'9 8.5
2015-Jan-21 05:31N 36°59' E 025°54'7 7.0
2015-Jan-21 04:33N 36°52' E 025°53'4 0.3
2015-Jan-20 15:32N 36°51' E 025°48'1110.6
2015-Jan-20 14:31N 36°56' E 025°36'14 6.9
2015-Jan-20 12:33N 37°02' E 025°21'  
Track history (hours):
 
Tides and Currents Weather Stations Pressure Air Temp Water Temp Dewpoint Dewpoint Depression Visibility Wind Speed Wind Dir Waves Ship Positions

ExpreSS Skopelitis

Last reported at 2015-Jan-30 11:34 UTC. Time now 2015-Jan-30 12:28 UTC.
Position N 37°06' E 025°22'.

Length 45 m; draft 2.4 m.

Type: Passenger vessel. MMSI: 237029400.

Date/timePositionNaut miles runAvg speedWind from/ knotsBaromVisibWave heightAir tempDewpointWater temp
2015-Jan-30 11:34N 37°06' E 025°22'0 0.0
2015-Jan-30 10:33N 37°06' E 025°22'0 0.0
2015-Jan-30 09:33N 37°06' E 025°22'2 2.1
2015-Jan-30 08:33N 37°05' E 025°20'15 7.4
2015-Jan-30 06:32N 36°55' E 025°34'1210.5
2015-Jan-30 05:23N 36°51' E 025°48'0 0.0
2015-Jan-29 15:31N 36°51' E 025°48'1110.8
2015-Jan-29 14:30N 36°56' E 025°36'14 7.2
2015-Jan-29 12:34N 37°02' E 025°21'4 4.2
2015-Jan-29 11:33N 37°06' E 025°22'0 0.0
2015-Jan-29 10:34N 37°06' E 025°22'0 0.0
2015-Jan-29 09:33N 37°06' E 025°22'2 2.4
2015-Jan-29 08:33N 37°05' E 025°20'15 7.3
2015-Jan-29 06:29N 36°55' E 025°35'9 9.8
2015-Jan-29 05:32N 36°52' E 025°46'6 0.5
2015-Jan-28 17:33N 36°52' E 025°54'7 6.8
2015-Jan-28 16:30N 36°59' E 025°53'7 7.7
2015-Jan-28 15:33N 37°04' E 025°46'1210.8
2015-Jan-28 14:26N 36°56' E 025°35'13 7.0
2015-Jan-28 12:33N 37°02' E 025°21'5 4.7
2015-Jan-28 11:33N 37°06' E 025°22'0 0.0
2015-Jan-28 10:33N 37°06' E 025°22'4 4.4
2015-Jan-28 09:33N 37°02' E 025°21'14 6.8
2015-Jan-28 07:32N 36°56' E 025°36'1111.5
2015-Jan-28 06:33N 37°04' E 025°46'8 7.9
2015-Jan-28 05:32N 36°59' E 025°54'7 7.0
2015-Jan-28 04:33N 36°52' E 025°54'4 0.3
2015-Jan-27 15:30N 36°50' E 025°50'1212.5
2015-Jan-27 14:33N 36°56' E 025°37'14 6.9
2015-Jan-27 12:34N 37°01' E 025°21'5 5.1
2015-Jan-27 11:34N 37°06' E 025°22'0 0.0
2015-Jan-27 10:34N 37°06' E 025°22'0 0.0
2015-Jan-27 09:33N 37°06' E 025°22'2 1.6
2015-Jan-27 08:33N 37°06' E 025°21'15 7.5
2015-Jan-27 06:33N 36°55' E 025°33'1210.3
2015-Jan-27 05:26N 36°52' E 025°47'8 0.6
2015-Jan-26 17:29N 36°53' E 025°56'7 7.8
2015-Jan-26 16:33N 36°60' E 025°53'7 7.0
2015-Jan-26 15:33N 37°04' E 025°46'1110.8
2015-Jan-26 14:31N 36°56' E 025°36'14 6.9
2015-Jan-26 12:34N 37°02' E 025°21'4 4.5
2015-Jan-26 11:34N 37°06' E 025°22'0 0.0
2015-Jan-26 10:33N 37°06' E 025°22'4 3.7
2015-Jan-26 09:34N 37°03' E 025°21'14 7.0
2015-Jan-26 07:29N 36°56' E 025°36'1111.7
2015-Jan-26 06:32N 37°04' E 025°46'8 7.8
2015-Jan-26 05:33N 36°59' E 025°53'7 7.0
2015-Jan-26 04:32N 36°52' E 025°54'3 0.1
2015-Jan-24 18:13N 36°50' E 025°51'13 7.3
2015-Jan-24 16:28N 37°03' E 025°50'6 6.0
2015-Jan-24 15:32N 37°01' E 025°43'1110.7
2015-Jan-24 14:30N 36°54' E 025°32'14 7.1
2015-Jan-24 12:33N 37°04' E 025°20'3 3.0
2015-Jan-24 11:33N 37°06' E 025°22'0 0.0
2015-Jan-24 10:33N 37°06' E 025°22'5 5.1
2015-Jan-24 09:34N 37°01' E 025°21'11 8.1
2015-Jan-24 08:11N 36°53' E 025°30'6 9.2
2015-Jan-24 07:32N 36°56' E 025°36'1211.9
2015-Jan-24 06:33N 37°04' E 025°46'8 8.1
2015-Jan-24 05:33N 36°59' E 025°54'7 7.1
2015-Jan-24 04:32N 36°52' E 025°53'4 0.1
2015-Jan-22 15:31N 36°51' E 025°49'1111.0
2015-Jan-22 14:30N 36°56' E 025°36'13 6.9
2015-Jan-22 12:33N 37°02' E 025°21'5 4.9
2015-Jan-22 11:33N 37°06' E 025°22'0 0.0
2015-Jan-22 10:33N 37°06' E 025°22'0 0.0
2015-Jan-22 09:33N 37°06' E 025°22'2 1.7
2015-Jan-22 08:33N 37°06' E 025°20'1610.6
2015-Jan-22 07:05N 36°52' E 025°30'4 7.6
2015-Jan-22 06:33N 36°55' E 025°34'1010.2
2015-Jan-22 05:31N 36°52' E 025°46'8 0.7
2015-Jan-21 17:23N 36°53' E 025°57'7 8.0
2015-Jan-21 16:33N 36°59' E 025°53'7 7.6
2015-Jan-21 15:33N 37°04' E 025°46'1210.5
2015-Jan-21 14:27N 36°56' E 025°35'13 7.0
2015-Jan-21 12:33N 37°02' E 025°21'4 4.5
2015-Jan-21 11:34N 37°06' E 025°22'0 0.0
2015-Jan-21 10:33N 37°06' E 025°22'5 4.8
2015-Jan-21 09:33N 37°02' E 025°21'1210.2
2015-Jan-21 08:22N 36°52' E 025°31'6 7.2
2015-Jan-21 07:33N 36°56' E 025°36'1211.9
2015-Jan-21 06:32N 37°05' E 025°46'9 8.5
2015-Jan-21 05:31N 36°59' E 025°54'7 7.0
2015-Jan-21 04:33N 36°52' E 025°53'4 0.3
2015-Jan-20 15:32N 36°51' E 025°48'1110.6
2015-Jan-20 14:31N 36°56' E 025°36'14 6.9
2015-Jan-20 12:33N 37°02' E 025°21'  

Dump ship's entire track history